Airfield :
LOGIN :

Register | Disclaimer

   EN    FR    IT 

 










Legend :    VFR   Marginal VFR   IFR   Intensive IFR   Very Intensive IFR
Visi :
Ceiling :
>= 8 km
>= 3000ft
5 to 8 km
1000 to 3000 ft
1500m to 5 km
500 to 1000 ft
800 to 1500m
200 to 500 ft
< 800m
< 200 ft
Symbols :   Thunderstorms  Fog  Heavy snow  Heavy precipitations  Wind > 20 kt
SIGMETs :     Misc.  Thunderstorms  Icing  Turbulence  Mountain Waves  Volcanic Ashes






- Airport Elevation : 325 ft
- IATA code : BES


LFRB - Brest

CURRENT METAR :
  • 200430Z AUTO 01006KT CAVOK 06/05 Q1024 TEMPO 2000 BR

EXPIRED METARs :
  • 200400Z AUTO 01005KT CAVOK 06/05 Q1024 TEMPO 2000 BR
  • 200330Z AUTO 01004KT CAVOK 07/06 Q1024 TEMPO 2000 BR
  • 200300Z AUTO 36004KT 9999 FEW018 07/06 Q1024 TEMPO 2000 BR
  • 200230Z AUTO 36005KT 9999 FEW017 07/07 Q1024 TEMPO 4000 BR
  • 200200Z AUTO 01003KT 8000 2400 SCT015 08/07 Q1024 TEMPO 4000 BR
  • 200130Z AUTO 02004KT 350V060 6000 1300 R25/P2000 R07/1300D BKN012 BKN018 08/07 Q1024 TEMPO 4000 BR BECMG SCT020
  • 200100Z AUTO 36005KT CAVOK 08/07 Q1024 TEMPO 4000 BR
  • 200030Z AUTO 35005KT CAVOK 08/07 Q1024 TEMPO 4000 BR
  • 200000Z AUTO 34005KT 9999 FEW009 08/08 Q1024 TEMPO 4000 BR
  • 192330Z AUTO 33005KT 9999 FEW010 08/08 Q1024 TEMPO 4000 BR

TAF AMD TAF LFRB
Valid from the 20 at 02:00 until the 21 at 06:00 UTC


200233Z 2002/2106 01005KT 9999 SCT020
TEMPO 2002/2007 2000 BR
BECMG 2007/2009 07010KT
PROB30
TEMPO 2014/2017 06015G25KT
BECMG 2022/2024 VRB05KT
PROB40
TEMPO 2103/2106 4000 BR
ATIS : +33 2 98 32 02 71



MET'MAP, your aeronautical weather chart ! - Copyright ORBIFLY December 2007 - Disclaimer

ORBIFLY MET'MAP TEAM :

Programming & Development : Alexandra Zaïnal
Original concept : Baudouin d'Aumeries
Technical & hardware support : Manuel Goepfert
Assistance : Marc-Olivier Méhu




SOURCES & CREDITS :

   NOAA